Terminal Aerodrome Forecast
Issued by NWS

Current Version | Previous Version | Text Only | Print | Product List | Glossary On
Versions: 1 2 3 4 5 6 7 8 9 10 11 12 13 14 15 16 17 18 19 20 21 22 23 24 25
000
FTUS41 KALY 191844 AAA
TAFPSF
TAF AMD
KPSF 191844Z 1919/2018 19013G22KT P6SM OVC035
      TEMPO 1919/1921 4SM -RA BR BKN020 OVC035
     FM192100 20010G20KT 3SM -RA BR OVC020
     FM200000 19007KT 1SM -RA BR BKN006 OVC015 WS020/23045KT
     FM200700 21005KT 3/4SM -DZ BR OVC006 WS020/25035KT
     FM201100 21006KT 1SM BR VCSH OVC008
     FM201500 22010G18KT 3SM BR SCT008 BKN020=

USA.gov is the U.S. government's official web portal to all federal, state and local government web resources and services.